Latest Weather Observations for Argyle

IDW60801

Issued at 5:33 pm WST Friday 9 December 2016 (issued every 30 minutes, with the page automatically refreshed every 10 minutes)

About weather observations | Map of weather stations | Latest weather observations for WA | Other Formats
Station Details ID: 002064 Name: ARGYLE AERODROME Lat: -16.64 Lon: 128.45 Height: 164.0 m
Data from the previous 72 hours. | See also: Recent months at Argyle
Date/Time
WST
Temp
°C
App
Temp
°C
Dew
Point
°C
Rel
Hum
%
Delta-T
°C
Wind Press
QNH
hPa
Press
MSL
hPa
Rain since
9am
mm
Dir  Spd
km/h
Gust
km/h
Spd
kts
Gust
kts
09/05:00pm 36.4 37.0 15.9 29 13.1 NNE 7 13 4 7 1005.7 - 0.0
09/04:30pm 37.0 35.5 14.2 25 14.2 NNE 15 22 8 12 - - 0.0
09/04:00pm 37.5 35.5 11.4 20 15.7 NE 13 20 7 11 1005.2 - 0.0
09/03:30pm 37.7 35.2 13.6 23 14.9 E 19 26 10 14 1004.7 - 0.0
09/03:00pm 38.7 36.2 13.5 22 15.7 NE 19 28 10 15 1004.5 - 0.0
09/02:30pm 39.5 36.4 12.1 19 16.7 E 20 30 11 16 1004.5 - 0.0
09/02:00pm 39.6 38.1 15.2 23 15.6 NE 17 28 9 15 1005.0 - -
09/01:30pm 39.4 38.4 15.6 24 15.2 NE 15 24 8 13 1005.2 - 0.0
09/01:00pm 38.0 37.3 16.3 27 14.0 NE 15 24 8 13 1006.1 - 0.0
09/12:30pm 38.4 36.4 15.4 25 14.6 ENE 20 30 11 16 1006.5 - 0.0
09/12:00pm 39.0 37.3 16.3 26 14.7 NNE 20 35 11 19 1006.7 - 0.0
09/11:30am 38.0 37.8 17.6 30 13.4 E 15 24 8 13 1007.2 - 0.0
09/11:00am 37.7 37.9 18.6 32 12.7 E 15 28 8 15 1007.6 - 0.0
09/10:30am 36.4 38.4 19.9 38 11.1 S 9 20 5 11 1008.0 - 0.0
09/10:00am 36.1 37.5 20.3 39 10.7 SE 13 20 7 11 1008.3 - 0.0
09/09:30am 35.6 37.0 19.6 39 10.7 E 11 19 6 10 1008.6 - 0.0
09/09:00am 35.4 36.9 19.7 39 10.5 ESE 11 19 6 10 1009.0 1007.7 0.6
09/08:30am 34.3 35.8 20.5 44 9.3 ENE 13 17 7 9 1009.2 - 0.6
09/08:00am 33.2 34.0 20.6 47 8.5 NE 17 22 9 12 1009.3 - 0.6
09/07:30am 34.3 34.2 18.7 39 10.3 ESE 17 22 9 12 1009.3 - 0.6
09/07:00am 33.6 33.9 18.7 41 9.8 SE 15 24 8 13 1008.9 - 0.6
09/06:30am 33.2 34.2 18.6 42 9.6 SSE 11 19 6 10 1008.7 - 0.6
09/06:00am 31.8 34.0 20.3 50 7.7 S 9 15 5 8 1008.3 1006.9 0.6
09/05:30am 30.4 33.7 21.9 60 5.8 S 7 11 4 6 1008.1 - 0.6
09/04:30am 30.2 33.6 21.6 60 5.8 WSW 6 7 3 4 1007.2 - 0.6
09/04:00am 30.9 32.3 20.4 53 7.0 SW 13 15 7 8 1006.9 - 0.6
09/03:30am 30.6 31.4 19.9 52 7.1 SSW 15 19 8 10 1006.9 - 0.6
09/03:00am 30.5 32.4 20.5 55 6.7 SSE 11 17 6 9 1006.9 1005.5 0.6
09/02:30am 29.8 32.0 21.2 60 5.8 SE 11 15 6 8 1007.0 - 0.6
09/02:00am 29.4 31.4 22.2 65 4.9 SW 15 24 8 13 1006.4 - 0.6
09/01:30am 31.7 32.5 19.8 49 7.9 S 15 22 8 12 1006.6 - 0.2
09/01:00am 32.8 35.5 21.3 50 7.8 SW 9 11 5 6 1006.4 - 0.2
09/12:30am 32.7 35.9 22.4 54 7.1 WSW 9 11 5 6 1006.3 - 0.2
09/12:00am 33.2 35.6 20.9 48 8.3 NW 9 11 5 6 1006.4 1005.0 0.2
 
Date/Time
WST
Temp
°C
App
Temp
°C
Dew
Point
°C
Rel
Hum
%
Delta-T
°C
Wind Press
QNH
hPa
Press
MSL
hPa
Rain since
9am
mm
Dir  Spd
km/h
Gust
km/h
Spd
kts
Gust
kts
08/11:30pm 33.5 35.3 20.4 46 8.8 NNW 11 13 6 7 1006.6 - 0.2
08/11:00pm 32.5 35.0 20.3 48 8.2 NE 7 11 4 6 1007.1 - 0.2
08/10:30pm 33.4 36.5 19.4 43 9.3 S 2 7 1 4 1007.0 - 0.2
08/10:00pm 33.1 36.0 19.9 45 8.8 S 4 9 2 5 1007.1 - 0.2
08/09:30pm 32.6 34.9 21.4 51 7.6 SW 11 15 6 8 1006.9 - 0.2
08/09:00pm 31.7 33.3 22.1 56 6.6 W 17 20 9 11 1006.7 1005.3 0.2
08/08:30pm 31.9 32.2 19.7 48 8.1 NW 17 20 9 11 1006.5 - 0.2
08/08:00pm 33.0 32.5 18.7 42 9.4 SW 19 28 10 15 1007.0 - 0.2
08/07:30pm 35.8 32.9 15.0 29 13.1 ESE 24 32 13 17 1006.3 - 0.0
08/07:00pm 37.8 37.2 13.5 23 15.0 NNE 9 11 5 6 1004.7 - 0.0
08/06:30pm 37.3 36.9 14.1 25 14.5 NNE 9 11 5 6 1004.4 - 0.0
08/06:00pm 37.7 36.8 13.6 23 15.0 NNE 11 13 6 7 1004.2 1002.8 0.0
08/05:30pm 38.5 37.5 13.4 22 15.6 NNE 11 15 6 8 1003.9 - 0.0
08/05:00pm 39.2 37.3 12.9 21 16.2 NE 15 19 8 10 1003.5 - 0.0
08/04:30pm 39.9 38.9 13.3 20 16.5 NE 11 15 6 8 1003.3 - 0.0
08/04:00pm 40.6 39.7 12.7 19 17.3 ESE 9 17 5 9 1003.2 - 0.0
08/03:30pm 41.2 41.3 13.8 20 17.2 W 6 13 3 7 1003.1 - 0.0
08/03:00pm 40.6 39.0 11.4 17 17.8 W 11 15 6 8 1003.4 1002.0 0.0
08/02:30pm 41.4 39.1 10.4 15 18.6 WNW 13 19 7 10 1003.6 - 0.0
08/02:00pm 41.1 39.3 10.9 16 18.2 ENE 11 19 6 10 1003.9 - 0.0
08/01:30pm 40.9 38.8 9.6 15 18.6 NNE 11 19 6 10 1004.3 - 0.0
08/01:00pm 41.0 39.5 8.3 14 19.0 NNE 6 13 3 7 1004.6 - 0.0
08/12:30pm 40.7 38.1 9.5 15 18.5 NNE 13 33 7 18 1005.0 - 0.0
08/12:00pm 40.1 39.2 13.6 21 16.6 SSE 11 15 6 8 1005.4 1004.0 0.0
08/11:30am 39.2 39.8 15.7 25 15.1 NNE 7 17 4 9 1006.0 - 0.0
08/11:00am 38.4 38.5 15.6 26 14.6 NE 9 15 5 8 1006.5 - 0.0
08/10:30am 38.3 38.9 16.8 28 13.9 NE 9 15 5 8 1007.0 - 0.0
08/10:00am 37.5 39.4 18.9 33 12.4 ENE 7 15 4 8 1007.6 - 0.0
08/09:30am 37.1 39.5 20.1 37 11.5 N 7 13 4 7 1007.9 - 0.0
08/09:00am 35.9 38.0 19.3 37 11.1 E 7 13 4 7 1008.1 1006.8 0.0
08/08:30am 35.7 37.0 19.2 38 11.0 SE 11 15 6 8 1008.3 - 0.0
08/08:00am 35.1 36.6 18.8 38 10.8 E 9 11 5 6 1008.4 - 0.0
08/07:30am 34.0 36.4 19.6 42 9.6 ENE 6 9 3 5 1008.3 - 0.0
08/06:30am 31.6 33.6 20.7 52 7.3 ESE 11 13 6 7 1008.1 - 0.0
08/06:00am 30.5 32.9 20.8 56 6.5 E 9 11 5 6 1007.8 1006.4 0.0
08/05:30am 29.3 31.5 20.4 58 5.9 E 9 11 5 6 1007.7 - 0.0
08/05:00am 28.8 31.3 19.9 58 5.9 E 6 9 3 5 1007.5 - 0.0
08/04:30am 29.5 31.7 19.5 55 6.6 SSE 7 11 4 6 1007.1 - 0.0
08/04:00am 29.7 31.7 19.9 55 6.5 SSE 9 11 5 6 1006.8 - 0.0
08/03:30am 31.2 32.1 18.5 46 8.3 NE 11 13 6 7 1006.5 - 0.0
08/03:00am 30.9 32.5 19.2 49 7.7 NNE 9 11 5 6 1005.7 1004.3 0.0
08/02:30am 31.5 34.3 20.5 52 7.4 NNW 6 7 3 4 1005.2 - 0.0
08/02:00am 31.3 33.8 19.9 50 7.6 N 6 7 3 4 1005.2 - 0.0
08/01:30am 32.1 35.3 18.9 45 8.7 CALM 0 0 0 0 1005.4 - 0.0
08/01:00am 32.0 33.7 18.5 44 8.8 WNW 7 11 4 6 1005.7 - 0.0
08/12:30am 32.8 33.1 17.1 39 10.1 NW 11 13 6 7 1006.0 - 0.0
08/12:00am 32.8 33.3 17.5 40 9.9 NW 11 11 6 6 1006.3 1004.9 0.0
 
Date/Time
WST
Temp
°C
App
Temp
°C
Dew
Point
°C
Rel
Hum
%
Delta-T
°C
Wind Press
QNH
hPa
Press
MSL
hPa
Rain since
9am
mm
Dir  Spd
km/h
Gust
km/h
Spd
kts
Gust
kts
07/11:30pm 32.7 34.5 18.3 42 9.4 W 6 9 3 5 1006.8 - 0.0
07/11:00pm 32.7 34.2 18.9 44 9.1 W 9 11 5 6 1007.1 - 0.0
07/10:30pm 34.1 35.7 17.0 36 11.0 ENE 4 7 2 4 1007.7 - 0.0
07/10:00pm 33.5 35.1 17.8 39 10.2 S 6 11 3 6 1008.0 - 0.0
07/09:30pm 34.3 35.1 17.3 36 11.0 SW 9 11 5 6 1008.0 - 0.0
07/09:00pm 33.6 35.1 18.1 39 10.1 ESE 7 11 4 6 1007.9 1006.5 0.0
07/08:30pm 35.0 37.9 19.0 39 10.6 SW 2 7 1 4 1007.6 - 0.0
07/08:00pm 35.2 38.4 18.9 38 10.8 CALM 0 0 0 0 1007.4 - 0.0
07/07:30pm 36.2 37.2 16.4 31 12.7 NE 6 7 3 4 1007.1 - 0.0
07/07:00pm 36.2 36.5 15.1 28 13.3 ENE 7 9 4 5 1006.6 - 0.0
07/06:30pm 36.5 36.2 14.5 27 13.8 NNE 9 11 5 6 1006.1 - 0.0
07/06:00pm 37.2 37.5 14.9 26 14.1 NNE 7 9 4 5 1006.1 1004.7 0.0
07/05:30pm 37.6 37.4 14.8 25 14.4 NNE 9 11 5 6 1005.7 - 0.0
07/05:00pm 38.4 37.6 14.0 23 15.2 NNE 11 15 6 8 1005.4 - 0.0
07/04:30pm 38.8 37.0 13.4 22 15.8 NNE 15 22 8 12 1005.3 - 0.0
07/04:00pm 38.9 37.0 14.1 23 15.5 NNE 17 24 9 13 1005.2 - 0.0
07/03:30pm 39.5 39.2 15.5 24 15.4 ENE 11 32 6 17 1005.3 - 0.0
07/03:00pm 39.3 37.2 13.5 21 16.1 NE 17 24 9 13 1005.6 1004.2 0.0
07/02:30pm 39.2 37.5 12.3 20 16.5 NNE 13 20 7 11 1005.8 - 0.0
07/02:00pm 39.4 37.1 11.6 19 16.9 N 15 20 8 11 1006.0 - 0.0
07/01:30pm 39.7 37.0 11.6 18 17.1 ENE 17 30 9 16 1006.3 - 0.0
07/01:00pm 39.3 38.4 12.5 20 16.5 NNE 9 20 5 11 1006.7 - 0.0
07/12:00pm 37.3 39.1 18.4 33 12.5 NE 6 9 3 5 1007.4 1006.0 0.0
07/11:30am 37.0 38.3 17.6 32 12.7 NW 7 13 4 7 1008.1 - 0.0
07/11:00am 37.2 38.6 18.7 33 12.3 W 9 11 5 6 1008.7 - 0.0
07/10:30am 36.5 38.7 19.5 37 11.4 SE 7 11 4 6 1009.4 - 0.0
07/10:00am 35.5 37.4 18.9 37 11.0 NNW 7 13 4 7 1009.9 - 0.0
07/09:30am 35.5 37.7 19.5 39 10.7 SSE 7 11 4 6 1010.3 - 0.0
07/09:00am 34.0 35.9 19.0 41 9.9 SSE 7 13 4 7 1010.7 1009.4 0.0
07/08:30am 33.6 35.2 19.1 42 9.6 ESE 9 15 5 8 1010.9 - 0.0
07/08:00am 33.2 34.7 18.9 42 9.4 ESE 9 19 5 10 1010.9 - 0.0
07/07:30am 32.6 34.2 19.1 44 8.9 SE 9 15 5 8 1010.8 - -
07/07:00am 31.6 33.2 19.1 47 8.2 S 9 13 5 7 1010.7 - 0.0
07/06:30am 31.2 32.9 19.4 49 7.8 S 9 15 5 8 1010.5 - 0.0
07/06:00am 30.1 32.1 20.0 54 6.7 S 9 13 5 7 1010.3 - 0.0
07/05:30am 29.1 31.7 20.4 59 5.8 S 7 9 4 5 1010.0 - 0.0
07/05:00am 28.6 31.1 20.3 60 5.5 S 7 9 4 5 1009.6 - 0.0
07/04:30am 29.1 31.0 19.7 57 6.2 SSW 9 13 5 7 1009.0 - 0.0
07/04:00am 29.0 30.9 19.7 57 6.1 S 9 11 5 6 1008.8 - 0.0
07/03:30am 28.8 31.2 20.0 59 5.8 S 7 11 4 6 1008.7 - 0.0
07/02:30am 29.7 31.6 19.7 55 6.6 S 9 11 5 6 1008.5 - 0.0
07/02:00am 29.9 33.3 21.0 59 6.0 S 4 9 2 5 1008.4 - 0.0
07/01:30am 30.6 33.0 20.1 53 7.0 SSW 7 11 4 6 1008.4 - 0.0
07/01:00am 30.8 33.0 20.5 54 6.9 SSW 9 11 5 6 1008.4 - 0.0
07/12:30am 30.9 33.0 20.2 53 7.1 SSW 9 11 5 6 1008.5 - 0.0
07/12:00am 31.4 32.7 20.1 51 7.5 SW 13 17 7 9 1008.7 1007.3 0.0
 
Date/Time
WST
Temp
°C
App
Temp
°C
Dew
Point
°C
Rel
Hum
%
Delta-T
°C
Wind Press
QNH
hPa
Press
MSL
hPa
Rain since
9am
mm
Dir  Spd
km/h
Gust
km/h
Spd
kts
Gust
kts
06/11:30pm 31.4 33.6 20.3 51 7.4 S 9 13 5 7 1008.9 - 0.0
06/11:00pm 32.1 32.6 19.2 46 8.5 W 15 20 8 11 1009.2 - 0.0
06/10:30pm 33.0 32.6 19.0 43 9.2 SW 19 26 10 14 1009.3 - 0.0
06/10:00pm 33.5 32.5 18.8 41 9.7 SW 22 32 12 17 1009.5 - 0.0
06/09:30pm 34.3 33.5 18.5 39 10.4 SW 20 28 11 15 1009.3 - 0.0
06/09:00pm 34.7 36.2 20.5 43 9.6 NNW 13 17 7 9 1008.8 1007.4 0.0
06/08:30pm 34.6 35.4 19.8 41 9.9 N 15 19 8 10 1008.5 - 0.0
06/08:00pm 34.7 39.9 22.8 50 8.3 CALM 0 6 0 3 1008.1 - 0.0
06/07:30pm 35.5 37.7 19.5 39 10.7 W 7 7 4 4 1007.8 - 0.0
06/07:00pm 35.4 37.1 18.4 36 11.2 NW 7 9 4 5 1007.5 - 0.0
06/06:30pm 34.9 38.4 19.6 40 10.2 CALM 0 0 0 0 1007.0 - 0.0
06/06:00pm 35.3 36.4 18.1 36 11.3 WSW 9 9 5 5 1006.3 1004.9 0.0

Other Formats:

Comma delimited format used in spreadsheet applications
http://www.bom.gov.au/fwo/IDW60801/IDW60801.94217.axf

JavaScript Object Notation format (JSON) in row-major order
http://www.bom.gov.au/fwo/IDW60801/IDW60801.94217.json